WetterOnline ( https://www.wetteronline.de )

Wetter aktuell Heiligenstadt

Aktuelles Wetter: Leinefelde (356m)

6-stündlich | Neueste Meldungen
Ortszeit Temperatur Wetter
So, 16.05. 2:00 9.0° C bedeckt
Sa, 15.05. 20:00 11.4° C bedeckt
Sa, 15.05. 14:00 13.5° C wolkig
Sa, 15.05. 8:00 9.1° C wolkig
Sa, 15.05. 2:00 6.8° C wolkenlos
Fr, 14.05. 20:00 13.8° C bewölkt
Fr, 14.05. 14:00 12.6° C bedeckt
Fr, 14.05. 8:00 10.2° C leichter Regen
Ortszeit Temperatur Wetter
So, 16.05. 5:30 8.7° C bewölkt
So, 16.05. 5:20 8.7° C bewölkt
So, 16.05. 5:10 8.9° C bewölkt
So, 16.05. 5:00 8.7° C bedeckt
So, 16.05. 4:50 8.7° C bedeckt
So, 16.05. 4:40 8.6° C bedeckt
So, 16.05. 4:30 8.6° C bedeckt
So, 16.05. 4:00 8.3° C wolkig
Ortszeit Relative Feuchte Sichtweite
So, 16.05. 2:00 88% 45 km
Sa, 15.05. 20:00 64% 65 km
Sa, 15.05. 14:00 58% >70 km
Sa, 15.05. 8:00 84% 55 km
Sa, 15.05. 2:00 88% 50 km
Fr, 14.05. 20:00 64% 50 km
Fr, 14.05. 14:00 74% 21 km
Fr, 14.05. 8:00 89% 9 km
Ortszeit Relative Feuchte Sichtweite
So, 16.05. 5:30 85% 50 km
So, 16.05. 5:20 85% -
So, 16.05. 5:10 84% -
So, 16.05. 5:00 88% 55 km
So, 16.05. 4:50 88% -
So, 16.05. 4:40 88% -
So, 16.05. 4:30 87% 65 km
So, 16.05. 4:00 91% 50 km
Ortszeit Niederschlagsmenge Niederschlagsart
So, 16.05. 2:00 0.1 l/m2 in 6 Std. Regen
Sa, 15.05. 20:00 0.2 l/m2 in 12 Std. Regen
Sa, 15.05. 14:00 0.2 l/m2 in 6 Std. Regen
Sa, 15.05. 8:00 0.1 l/m2 in 12 Std. -
Sa, 15.05. 2:00 0.1 l/m2 in 6 Std. Regen
Fr, 14.05. 20:00 2 l/m2 in 12 Std. Regen
Fr, 14.05. 14:00 0.1 l/m2 in 6 Std. Regen
Fr, 14.05. 8:00 0.1 l/m2 in 12 Std. Regen
Ortszeit Niederschlagsmenge Niederschlagsart
So, 16.05. 5:30 0.0 l/m2 in 1 Std. -
So, 16.05. 5:20 keine Meldung -
So, 16.05. 5:10 keine Meldung -
So, 16.05. 5:00 0.1 l/m2 in 1 Std. Regen
So, 16.05. 4:50 keine Meldung -
So, 16.05. 4:40 keine Meldung -
So, 16.05. 4:30 0.0 l/m2 in 1 Std. -
So, 16.05. 4:00 0.1 l/m2 in 1 Std. -
Ortszeit Stärke Spitze Richtung
km/h Bft. km/h Grad Sektor
So, 16.05. 2:00 11 2 29 200° S
Sa, 15.05. 20:00 17 3 37 230° SW
Sa, 15.05. 14:00 18 3 40 220° SW
Sa, 15.05. 8:00 4 1 22 210° SW
Sa, 15.05. 2:00 4 1 14 270° W
Fr, 14.05. 20:00 6 1 22 330° NW
Fr, 14.05. 14:00 14 3 25 300° NW
Fr, 14.05. 8:00 13 3 22 260° W
Ortszeit Stärke Spitze Richtung
km/h Bft. km/h Grad Sektor
So, 16.05. 5:30 13 3 28 220° SW
So, 16.05. 5:20 13 3 - 220° SW
So, 16.05. 5:10 14 3 - 230° SW
So, 16.05. 5:00 11 2 18 230° SW
So, 16.05. 4:50 11 2 - 230° SW
So, 16.05. 4:40 7 2 - 230° SW
So, 16.05. 4:30 9 2 19 230° SW
So, 16.05. 4:00 11 2 20 220° SW
Ortszeit Untergrenze Bedeckung Gattung
total tief tief mittel hoch
So, 16.05. 2:00 600 m 8/8 8/8 - - -
Sa, 15.05. 20:00 1350 m 8/8 8/8 - - -
Sa, 15.05. 14:00 1020 m 7/8 4/8 - - -
Sa, 15.05. 8:00 450 m 8/8 2/8 - - -
Sa, 15.05. 2:00 - 0/8 0/8 - - -
Fr, 14.05. 20:00 2400 m 7/8 7/8 - - -
Fr, 14.05. 14:00 1080 m 8/8 8/8 - - -
Fr, 14.05. 8:00 1410 m 7/8 3/8 - - -
Ortszeit Bedeckungsgrad in Achtel und Wolkenuntergrenze
So, 16.05. 5:30 5(510m) 7(1110m) 7(1500m)
So, 16.05. 5:20 5(510m) 7(1110m) 7(1500m)
So, 16.05. 5:10 7(510m)
So, 16.05. 5:00 4(480m) 7(840m) 8(1800m)
So, 16.05. 4:50 4(480m) 7(840m) 8(1800m)
So, 16.05. 4:40 1(330m) 6(960m) 8(1800m)
So, 16.05. 4:30 8(1800m) 3(900m) 8(1800m)
So, 16.05. 4:00 3(960m) 8(4800m) 8(6300m)
Ortszeit Luftdruck NN (hPa) Tendenz (hPa in 3 Std.)
So, 16.05. 2:00 1002 - 0,5
Sa, 15.05. 20:00 1003 - 0,4
Sa, 15.05. 14:00 1005 - 1,5
Sa, 15.05. 8:00 1008 + 0,3
Sa, 15.05. 2:00 1008 0,0
Fr, 14.05. 20:00 1007 - 0,2
Fr, 14.05. 14:00 1007 + 0,1
Fr, 14.05. 8:00 1006 + 0,5
Ortszeit Luftdruck NN (hPa) Tendenz (hPa in 3 Std.)
So, 16.05. 5:30 1003 + 0,4
So, 16.05. 5:20 1003 keine Meldung
So, 16.05. 5:10 1003 keine Meldung
So, 16.05. 5:00 1003 + 0,3
So, 16.05. 4:50 1003 keine Meldung
So, 16.05. 4:40 1003 keine Meldung
So, 16.05. 4:30 1003 0,0
So, 16.05. 4:00 1003 - 0,1
Ortszeit Schneehöhe (cm)
So, 16.05. 2:00 0
Sa, 15.05. 20:00 0
Sa, 15.05. 14:00 0
Sa, 15.05. 8:00 0
Sa, 15.05. 2:00 0
Fr, 14.05. 20:00 0
Fr, 14.05. 14:00 0
Fr, 14.05. 8:00 0
Ortszeit Schneehöhe (cm)
So, 16.05. 5:30 0
So, 16.05. 5:20 0
So, 16.05. 5:10 0
So, 16.05. 5:00 0
So, 16.05. 4:50 0
So, 16.05. 4:40 0
So, 16.05. 4:30 0
So, 16.05. 4:00 0
Link zu dieser Seite / Seite empfehlen

Das Wetter in ...